sensor_id;sensor_type;location;lat;lon;timestamp;pressure;altitude;pressure_sealevel;temperature;humidity
29163;BME280;20331;53.144;8.208;2024-01-10T00:05:18;103575.63;;;-2.35;96.58
29163;BME280;20331;53.144;8.208;2024-01-10T00:10:41;103579.72;;;-2.37;97.18
29163;BME280;20331;53.144;8.208;2024-01-10T00:16:03;103567.34;;;-2.32;97.63
29163;BME280;20331;53.144;8.208;2024-01-10T00:21:25;103557.91;;;-2.35;96.96
29163;BME280;20331;53.144;8.208;2024-01-10T00:26:46;103556.81;;;-2.38;96.32
29163;BME280;20331;53.144;8.208;2024-01-10T00:32:08;103548.00;;;-2.43;96.77
29163;BME280;20331;53.144;8.208;2024-01-10T00:37:29;103533.41;;;-2.47;97.13
29163;BME280;20331;53.144;8.208;2024-01-10T00:42:51;103525.78;;;-2.47;97.00
29163;BME280;20331;53.144;8.208;2024-01-10T00:48:13;103520.72;;;-2.47;97.09
29163;BME280;20331;53.144;8.208;2024-01-10T00:53:35;103518.06;;;-2.49;97.31
29163;BME280;20331;53.144;8.208;2024-01-10T00:58:56;103523.84;;;-2.51;97.08
29163;BME280;20331;53.144;8.208;2024-01-10T01:04:19;103523.59;;;-2.54;96.70
29163;BME280;20331;53.144;8.208;2024-01-10T01:09:42;103519.00;;;-2.60;96.96
29163;BME280;20331;53.144;8.208;2024-01-10T01:15:04;103520.09;;;-2.56;97.90
29163;BME280;20331;53.144;8.208;2024-01-10T01:20:25;103511.63;;;-2.57;97.66
29163;BME280;20331;53.144;8.208;2024-01-10T01:25:51;103523.50;;;-2.56;97.79
29163;BME280;20331;53.144;8.208;2024-01-10T01:31:12;103534.22;;;-2.60;96.69
29163;BME280;20331;53.144;8.208;2024-01-10T01:36:34;103539.00;;;-2.64;96.40
29163;BME280;20331;53.144;8.208;2024-01-10T01:41:56;103532.75;;;-2.69;96.73
29163;BME280;20331;53.144;8.208;2024-01-10T01:47:17;103542.00;;;-2.70;96.79
29163;BME280;20331;53.144;8.208;2024-01-10T01:52:39;103535.84;;;-2.73;96.83
29163;BME280;20331;53.144;8.208;2024-01-10T01:58:02;103537.59;;;-2.72;97.01
29163;BME280;20331;53.144;8.208;2024-01-10T02:03:24;103539.84;;;-2.77;97.21
29163;BME280;20331;53.144;8.208;2024-01-10T02:08:45;103536.59;;;-2.74;97.82
29163;BME280;20331;53.144;8.208;2024-01-10T02:14:07;103531.16;;;-2.80;96.81
29163;BME280;20331;53.144;8.208;2024-01-10T02:19:29;103526.94;;;-2.80;96.98
29163;BME280;20331;53.144;8.208;2024-01-10T02:24:54;103513.00;;;-2.86;96.79
29163;BME280;20331;53.144;8.208;2024-01-10T02:30:16;103514.34;;;-2.91;96.88
29163;BME280;20331;53.144;8.208;2024-01-10T02:35:37;103507.84;;;-2.88;97.90
29163;BME280;20331;53.144;8.208;2024-01-10T02:40:59;103501.41;;;-2.83;98.17
29163;BME280;20331;53.144;8.208;2024-01-10T02:46:22;103495.47;;;-2.83;97.78
29163;BME280;20331;53.144;8.208;2024-01-10T02:51:44;103498.56;;;-2.87;97.67
29163;BME280;20331;53.144;8.208;2024-01-10T02:57:06;103491.66;;;-2.90;97.87
29163;BME280;20331;53.144;8.208;2024-01-10T03:02:28;103502.69;;;-2.89;97.85
29163;BME280;20331;53.144;8.208;2024-01-10T03:07:50;103495.06;;;-2.89;97.76
29163;BME280;20331;53.144;8.208;2024-01-10T03:13:11;103496.81;;;-2.88;97.70
29163;BME280;20331;53.144;8.208;2024-01-10T03:18:33;103487.69;;;-2.86;98.43
29163;BME280;20331;53.144;8.208;2024-01-10T03:23:56;103480.63;;;-2.90;97.51
29163;BME280;20331;53.144;8.208;2024-01-10T03:29:18;103478.00;;;-2.92;97.77
29163;BME280;20331;53.144;8.208;2024-01-10T03:34:41;103480.22;;;-2.96;97.50
29163;BME280;20331;53.144;8.208;2024-01-10T03:40:03;103469.91;;;-2.99;97.26
29163;BME280;20331;53.144;8.208;2024-01-10T03:45:24;103461.31;;;-3.01;97.36
29163;BME280;20331;53.144;8.208;2024-01-10T03:50:46;103474.22;;;-2.98;97.73
29163;BME280;20331;53.144;8.208;2024-01-10T03:56:08;103476.31;;;-3.04;97.27
29163;BME280;20331;53.144;8.208;2024-01-10T04:01:30;103472.59;;;-3.10;97.01
29163;BME280;20331;53.144;8.208;2024-01-10T04:06:52;103471.03;;;-3.08;97.61
29163;BME280;20331;53.144;8.208;2024-01-10T04:12:13;103465.16;;;-3.20;96.53
29163;BME280;20331;53.144;8.208;2024-01-10T04:17:35;103469.78;;;-3.26;96.70
29163;BME280;20331;53.144;8.208;2024-01-10T04:22:57;103475.31;;;-3.31;96.89
29163;BME280;20331;53.144;8.208;2024-01-10T04:28:18;103467.41;;;-3.36;96.75
29163;BME280;20331;53.144;8.208;2024-01-10T04:33:40;103480.81;;;-3.37;97.27
29163;BME280;20331;53.144;8.208;2024-01-10T04:39:02;103475.22;;;-3.44;96.81
29163;BME280;20331;53.144;8.208;2024-01-10T04:44:24;103478.66;;;-3.44;97.99
29163;BME280;20331;53.144;8.208;2024-01-10T04:49:45;103471.28;;;-3.41;97.80
29163;BME280;20331;53.144;8.208;2024-01-10T04:55:07;103453.78;;;-3.38;97.63
29163;BME280;20331;53.144;8.208;2024-01-10T05:00:30;103462.91;;;-3.40;97.34
29163;BME280;20331;53.144;8.208;2024-01-10T05:05:51;103452.00;;;-3.39;97.72
29163;BME280;20331;53.144;8.208;2024-01-10T05:11:14;103449.38;;;-3.40;97.18
29163;BME280;20331;53.144;8.208;2024-01-10T05:16:36;103441.13;;;-3.38;97.40
29163;BME280;20331;53.144;8.208;2024-01-10T05:21:58;103443.66;;;-3.38;97.43
29163;BME280;20331;53.144;8.208;2024-01-10T05:27:24;103442.88;;;-3.37;97.20
29163;BME280;20331;53.144;8.208;2024-01-10T05:32:46;103442.78;;;-3.38;96.46
29163;BME280;20331;53.144;8.208;2024-01-10T05:38:07;103439.16;;;-3.42;96.42
29163;BME280;20331;53.144;8.208;2024-01-10T05:43:29;103443.78;;;-3.48;96.52
29163;BME280;20331;53.144;8.208;2024-01-10T05:48:51;103452.16;;;-3.49;96.24
29163;BME280;20331;53.144;8.208;2024-01-10T05:54:12;103451.38;;;-3.48;97.20
29163;BME280;20331;53.144;8.208;2024-01-10T05:59:34;103452.25;;;-3.47;96.87
29163;BME280;20331;53.144;8.208;2024-01-10T06:04:56;103454.50;;;-3.52;97.04
29163;BME280;20331;53.144;8.208;2024-01-10T06:10:18;103449.44;;;-3.52;97.04
29163;BME280;20331;53.144;8.208;2024-01-10T06:15:40;103444.16;;;-3.55;97.18
29163;BME280;20331;53.144;8.208;2024-01-10T06:21:03;103448.34;;;-3.55;96.52
29163;BME280;20331;53.144;8.208;2024-01-10T06:26:25;103440.97;;;-3.52;97.04
29163;BME280;20331;53.144;8.208;2024-01-10T06:31:47;103442.41;;;-3.56;96.71
29163;BME280;20331;53.144;8.208;2024-01-10T06:37:10;103444.16;;;-3.55;97.29
29163;BME280;20331;53.144;8.208;2024-01-10T06:42:32;103441.22;;;-3.61;96.77
29163;BME280;20331;53.144;8.208;2024-01-10T06:47:54;103447.03;;;-3.62;96.87
29163;BME280;20331;53.144;8.208;2024-01-10T06:53:16;103459.03;;;-3.59;97.19
29163;BME280;20331;53.144;8.208;2024-01-10T06:58:38;103456.25;;;-3.62;97.21
29163;BME280;20331;53.144;8.208;2024-01-10T07:04:02;103465.72;;;-3.60;96.98
29163;BME280;20331;53.144;8.208;2024-01-10T07:09:26;103463.19;;;-3.60;97.12
29163;BME280;20331;53.144;8.208;2024-01-10T07:14:48;103464.19;;;-3.58;97.07
29163;BME280;20331;53.144;8.208;2024-01-10T07:20:10;103461.31;;;-3.62;97.32
29163;BME280;20331;53.144;8.208;2024-01-10T07:25:33;103457.34;;;-3.59;97.43
29163;BME280;20331;53.144;8.208;2024-01-10T07:30:55;103457.16;;;-3.62;97.41
29163;BME280;20331;53.144;8.208;2024-01-10T07:36:16;103454.06;;;-3.58;97.85
29163;BME280;20331;53.144;8.208;2024-01-10T07:41:39;103460.22;;;-3.54;97.67
29163;BME280;20331;53.144;8.208;2024-01-10T07:47:00;103473.06;;;-3.51;97.94
29163;BME280;20331;53.144;8.208;2024-01-10T07:52:23;103477.34;;;-3.50;97.59
29163;BME280;20331;53.144;8.208;2024-01-10T07:57:46;103480.00;;;-3.49;97.70
29163;BME280;20331;53.144;8.208;2024-01-10T08:03:08;103475.47;;;-3.53;97.56
29163;BME280;20331;53.144;8.208;2024-01-10T08:08:31;103473.84;;;-3.52;98.09
29163;BME280;20331;53.144;8.208;2024-01-10T08:13:53;103471.75;;;-3.46;97.59
29163;BME280;20331;53.144;8.208;2024-01-10T08:19:15;103472.03;;;-3.42;98.09
29163;BME280;20331;53.144;8.208;2024-01-10T08:24:37;103470.69;;;-3.37;98.17
29163;BME280;20331;53.144;8.208;2024-01-10T08:29:59;103467.41;;;-3.36;97.64
29163;BME280;20331;53.144;8.208;2024-01-10T08:35:20;103466.72;;;-3.33;97.56
29163;BME280;20331;53.144;8.208;2024-01-10T08:40:45;103469.38;;;-3.32;97.46
29163;BME280;20331;53.144;8.208;2024-01-10T08:46:10;103468.78;;;-3.28;97.48
29163;BME280;20331;53.144;8.208;2024-01-10T08:51:33;103466.69;;;-3.22;97.51
29163;BME280;20331;53.144;8.208;2024-01-10T08:56:54;103456.31;;;-3.13;97.11
29163;BME280;20331;53.144;8.208;2024-01-10T09:02:16;103455.06;;;-3.07;97.57
29163;BME280;20331;53.144;8.208;2024-01-10T09:07:38;103459.59;;;-3.02;97.34
29163;BME280;20331;53.144;8.208;2024-01-10T09:13:00;103459.00;;;-2.98;97.15
29163;BME280;20331;53.144;8.208;2024-01-10T09:18:21;103454.03;;;-2.97;96.47
29163;BME280;20331;53.144;8.208;2024-01-10T09:23:43;103461.28;;;-2.90;96.63
29163;BME280;20331;53.144;8.208;2024-01-10T09:29:05;103452.22;;;-2.86;96.40
29163;BME280;20331;53.144;8.208;2024-01-10T09:34:27;103457.47;;;-2.83;96.03
29163;BME280;20331;53.144;8.208;2024-01-10T09:39:49;103449.13;;;-2.82;95.55
29163;BME280;20331;53.144;8.208;2024-01-10T09:45:10;103454.56;;;-2.76;95.81
29163;BME280;20331;53.144;8.208;2024-01-10T09:50:35;103460.25;;;-2.67;95.78
29163;BME280;20331;53.144;8.208;2024-01-10T09:55:57;103446.81;;;-2.66;94.46
29163;BME280;20331;53.144;8.208;2024-01-10T10:01:21;103447.22;;;-2.60;95.30
29163;BME280;20331;53.144;8.208;2024-01-10T10:06:43;103444.97;;;-2.56;94.60
29163;BME280;20331;53.144;8.208;2024-01-10T10:12:05;103446.03;;;-2.52;94.69
29163;BME280;20331;53.144;8.208;2024-01-10T10:17:28;103446.94;;;-2.52;93.25
29163;BME280;20331;53.144;8.208;2024-01-10T10:28:28;103429.28;;;-2.37;92.94
29163;BME280;20331;53.144;8.208;2024-01-10T10:33:59;103435.53;;;-2.32;91.54
29163;BME280;20331;53.144;8.208;2024-01-10T10:39:21;103435.03;;;-2.27;91.32
29163;BME280;20331;53.144;8.208;2024-01-10T10:44:44;103438.78;;;-2.22;90.83
29163;BME280;20331;53.144;8.208;2024-01-10T10:50:08;103429.47;;;-2.21;89.90
29163;BME280;20331;53.144;8.208;2024-01-10T10:55:34;103424.63;;;-2.18;89.67
29163;BME280;20331;53.144;8.208;2024-01-10T11:00:57;103414.94;;;-2.11;89.64
29163;BME280;20331;53.144;8.208;2024-01-10T11:06:21;103411.81;;;-2.07;89.08
29163;BME280;20331;53.144;8.208;2024-01-10T11:23:51;103400.66;;;-1.82;88.56
29163;BME280;20331;53.144;8.208;2024-01-10T11:29:15;103404.47;;;-1.76;87.53
29163;BME280;20331;53.144;8.208;2024-01-10T11:34:37;103395.09;;;-1.77;86.51
29163;BME280;20331;53.144;8.208;2024-01-10T11:39:58;103397.81;;;-1.74;84.83
29163;BME280;20331;53.144;8.208;2024-01-10T11:50:58;103392.22;;;-1.68;85.30
29163;BME280;20331;53.144;8.208;2024-01-10T11:56:20;103389.19;;;-1.63;85.40
29163;BME280;20331;53.144;8.208;2024-01-10T12:01:54;103384.78;;;-1.52;87.00
29163;BME280;20331;53.144;8.208;2024-01-10T12:07:17;103380.75;;;-1.49;86.30
29163;BME280;20331;53.144;8.208;2024-01-10T12:12:40;103375.84;;;-1.46;83.03
29163;BME280;20331;53.144;8.208;2024-01-10T12:18:03;103371.56;;;-1.47;83.09
29163;BME280;20331;53.144;8.208;2024-01-10T12:23:25;103367.72;;;-1.40;81.85
29163;BME280;20331;53.144;8.208;2024-01-10T12:28:54;103366.84;;;-1.41;81.61
29163;BME280;20331;53.144;8.208;2024-01-10T12:34:20;103363.72;;;-1.37;82.05
29163;BME280;20331;53.144;8.208;2024-01-10T12:39:43;103344.53;;;-1.32;81.58
29163;BME280;20331;53.144;8.208;2024-01-10T12:45:05;103341.59;;;-1.25;81.32
29163;BME280;20331;53.144;8.208;2024-01-10T12:50:26;103347.59;;;-1.23;78.94
29163;BME280;20331;53.144;8.208;2024-01-10T12:55:48;103336.06;;;-1.18;80.03
29163;BME280;20331;53.144;8.208;2024-01-10T13:01:10;103332.94;;;-1.14;80.25
29163;BME280;20331;53.144;8.208;2024-01-10T13:06:33;103344.81;;;-1.13;80.84
29163;BME280;20331;53.144;8.208;2024-01-10T13:11:58;103336.59;;;-1.09;81.75
29163;BME280;20331;53.144;8.208;2024-01-10T13:17:20;103336.75;;;-1.06;80.54
29163;BME280;20331;53.144;8.208;2024-01-10T13:22:42;103320.91;;;-1.02;80.60
29163;BME280;20331;53.144;8.208;2024-01-10T13:28:04;103331.31;;;-0.97;82.01
29163;BME280;20331;53.144;8.208;2024-01-10T13:33:26;103324.94;;;-0.90;82.68
29163;BME280;20331;53.144;8.208;2024-01-10T13:38:48;103324.78;;;-0.93;82.14
29163;BME280;20331;53.144;8.208;2024-01-10T13:44:09;103326.69;;;-0.89;82.82
29163;BME280;20331;53.144;8.208;2024-01-10T13:49:31;103332.91;;;-0.84;83.24
29163;BME280;20331;53.144;8.208;2024-01-10T13:54:53;103336.06;;;-0.88;81.85
29163;BME280;20331;53.144;8.208;2024-01-10T14:00:14;103328.38;;;-0.90;81.86
29163;BME280;20331;53.144;8.208;2024-01-10T14:05:36;103334.66;;;-0.83;82.31
29163;BME280;20331;53.144;8.208;2024-01-10T14:10:58;103335.34;;;-0.86;81.91
29163;BME280;20331;53.144;8.208;2024-01-10T14:16:20;103324.13;;;-0.89;80.41
29163;BME280;20331;53.144;8.208;2024-01-10T14:21:42;103330.28;;;-0.86;81.11
29163;BME280;20331;53.144;8.208;2024-01-10T14:27:04;103330.47;;;-0.83;81.79
29163;BME280;20331;53.144;8.208;2024-01-10T14:32:25;103322.22;;;-0.79;81.84
29163;BME280;20331;53.144;8.208;2024-01-10T14:37:47;103323.81;;;-0.81;80.84
29163;BME280;20331;53.144;8.208;2024-01-10T14:43:09;103316.09;;;-0.82;80.89
29163;BME280;20331;53.144;8.208;2024-01-10T14:48:34;103318.63;;;-0.82;81.50
29163;BME280;20331;53.144;8.208;2024-01-10T14:53:56;103315.91;;;-0.85;81.51
29163;BME280;20331;53.144;8.208;2024-01-10T14:59:18;103319.41;;;-0.83;80.89
29163;BME280;20331;53.144;8.208;2024-01-10T15:04:53;103318.38;;;-0.87;80.95
29163;BME280;20331;53.144;8.208;2024-01-10T15:10:14;103317.31;;;-0.90;81.32
29163;BME280;20331;53.144;8.208;2024-01-10T15:15:39;103318.75;;;-0.95;81.54
29163;BME280;20331;53.144;8.208;2024-01-10T15:21:02;103321.34;;;-0.94;82.04
29163;BME280;20331;53.144;8.208;2024-01-10T15:26:25;103327.03;;;-0.98;82.01
29163;BME280;20331;53.144;8.208;2024-01-10T15:31:49;103339.47;;;-1.03;81.59
29163;BME280;20331;53.144;8.208;2024-01-10T15:37:10;103337.13;;;-0.99;86.15
29163;BME280;20331;53.144;8.208;2024-01-10T15:42:32;103341.84;;;-1.06;87.60
29163;BME280;20331;53.144;8.208;2024-01-10T15:47:54;103346.94;;;-1.06;88.84
29163;BME280;20331;53.144;8.208;2024-01-10T15:53:16;103349.09;;;-1.12;89.64
29163;BME280;20331;53.144;8.208;2024-01-10T15:58:39;103346.03;;;-1.21;89.14
29163;BME280;20331;53.144;8.208;2024-01-10T16:04:04;103350.94;;;-1.24;89.28
29163;BME280;20331;53.144;8.208;2024-01-10T16:09:26;103354.09;;;-1.28;90.15
29163;BME280;20331;53.144;8.208;2024-01-10T16:14:47;103362.50;;;-1.29;90.04
29163;BME280;20331;53.144;8.208;2024-01-10T16:20:10;103349.28;;;-1.38;90.16
29163;BME280;20331;53.144;8.208;2024-01-10T16:25:31;103344.88;;;-1.40;90.19
29163;BME280;20331;53.144;8.208;2024-01-10T16:30:53;103360.78;;;-1.43;90.27
29163;BME280;20331;53.144;8.208;2024-01-10T16:36:15;103371.56;;;-1.47;90.29
29163;BME280;20331;53.144;8.208;2024-01-10T16:41:38;103367.69;;;-1.55;90.17
29163;BME280;20331;53.144;8.208;2024-01-10T16:47:00;103373.38;;;-1.59;90.77
29163;BME280;20331;53.144;8.208;2024-01-10T16:52:22;103368.13;;;-1.62;91.02
29163;BME280;20331;53.144;8.208;2024-01-10T16:57:43;103369.38;;;-1.68;91.49
29163;BME280;20331;53.144;8.208;2024-01-10T17:03:05;103370.78;;;-1.73;91.86
29163;BME280;20331;53.144;8.208;2024-01-10T17:08:27;103371.50;;;-1.76;92.71
29163;BME280;20331;53.144;8.208;2024-01-10T17:13:48;103372.16;;;-1.78;93.20
29163;BME280;20331;53.144;8.208;2024-01-10T17:19:10;103369.34;;;-1.83;93.15
29163;BME280;20331;53.144;8.208;2024-01-10T17:24:32;103372.69;;;-1.84;93.16
29163;BME280;20331;53.144;8.208;2024-01-10T17:29:53;103363.91;;;-1.89;93.25
29163;BME280;20331;53.144;8.208;2024-01-10T17:35:15;103365.66;;;-1.88;94.03
29163;BME280;20331;53.144;8.208;2024-01-10T17:40:38;103364.50;;;-1.93;93.71
29163;BME280;20331;53.144;8.208;2024-01-10T17:46:00;103363.53;;;-1.95;93.69
29163;BME280;20331;53.144;8.208;2024-01-10T17:51:22;103365.19;;;-1.95;93.88
29163;BME280;20331;53.144;8.208;2024-01-10T17:56:45;103366.56;;;-2.00;93.68
29163;BME280;20331;53.144;8.208;2024-01-10T18:02:07;103359.63;;;-2.03;93.66
29163;BME280;20331;53.144;8.208;2024-01-10T18:07:28;103370.28;;;-2.09;93.62
29163;BME280;20331;53.144;8.208;2024-01-10T18:12:50;103371.97;;;-2.09;93.62
29163;BME280;20331;53.144;8.208;2024-01-10T18:18:12;103372.53;;;-2.13;93.83
29163;BME280;20331;53.144;8.208;2024-01-10T18:23:33;103377.53;;;-2.15;94.01
29163;BME280;20331;53.144;8.208;2024-01-10T18:28:55;103369.81;;;-2.16;94.86
29163;BME280;20331;53.144;8.208;2024-01-10T18:34:17;103376.34;;;-2.20;94.22
29163;BME280;20331;53.144;8.208;2024-01-10T18:39:39;103367.88;;;-2.20;94.89
29163;BME280;20331;53.144;8.208;2024-01-10T18:45:00;103375.50;;;-2.20;94.72
29163;BME280;20331;53.144;8.208;2024-01-10T18:50:22;103378.44;;;-2.27;95.22
29163;BME280;20331;53.144;8.208;2024-01-10T18:55:44;103391.38;;;-2.23;95.61
29163;BME280;20331;53.144;8.208;2024-01-10T19:01:05;103392.84;;;-2.26;95.41
29163;BME280;20331;53.144;8.208;2024-01-10T19:06:27;103407.06;;;-2.28;95.93
29163;BME280;20331;53.144;8.208;2024-01-10T19:11:49;103402.66;;;-2.31;95.66
29163;BME280;20331;53.144;8.208;2024-01-10T19:17:10;103406.97;;;-2.30;95.87
29163;BME280;20331;53.144;8.208;2024-01-10T19:22:32;103413.69;;;-2.30;96.00
29163;BME280;20331;53.144;8.208;2024-01-10T19:27:54;103401.59;;;-2.34;96.06
29163;BME280;20331;53.144;8.208;2024-01-10T19:33:17;103402.09;;;-2.40;96.53
29163;BME280;20331;53.144;8.208;2024-01-10T19:38:39;103417.41;;;-2.38;97.00
29163;BME280;20331;53.144;8.208;2024-01-10T19:44:01;103424.63;;;-2.44;96.50
29163;BME280;20331;53.144;8.208;2024-01-10T19:49:23;103433.97;;;-2.43;97.19
29163;BME280;20331;53.144;8.208;2024-01-10T19:54:45;103432.97;;;-2.45;97.07
29163;BME280;20331;53.144;8.208;2024-01-10T20:00:07;103437.88;;;-2.48;96.84
29163;BME280;20331;53.144;8.208;2024-01-10T20:05:33;103445.06;;;-2.54;97.03
29163;BME280;20331;53.144;8.208;2024-01-10T20:10:55;103447.41;;;-2.57;96.74
29163;BME280;20331;53.144;8.208;2024-01-10T20:16:17;103450.59;;;-2.60;97.41
29163;BME280;20331;53.144;8.208;2024-01-10T20:21:39;103454.03;;;-2.59;97.27
29163;BME280;20331;53.144;8.208;2024-01-10T20:27:01;103450.31;;;-2.64;97.57
29163;BME280;20331;53.144;8.208;2024-01-10T20:32:22;103448.69;;;-2.64;97.35
29163;BME280;20331;53.144;8.208;2024-01-10T20:37:44;103447.88;;;-2.63;97.91
29163;BME280;20331;53.144;8.208;2024-01-10T20:43:06;103449.75;;;-2.60;97.96
29163;BME280;20331;53.144;8.208;2024-01-10T20:48:28;103459.66;;;-2.63;97.81
29163;BME280;20331;53.144;8.208;2024-01-10T20:53:50;103457.94;;;-2.64;98.07
29163;BME280;20331;53.144;8.208;2024-01-10T20:59:11;103461.81;;;-2.69;97.39
29163;BME280;20331;53.144;8.208;2024-01-10T21:04:33;103463.66;;;-2.67;98.26
29163;BME280;20331;53.144;8.208;2024-01-10T21:09:55;103436.25;;;-2.72;97.97
29163;BME280;20331;53.144;8.208;2024-01-10T21:15:17;103447.19;;;-2.73;97.48
29163;BME280;20331;53.144;8.208;2024-01-10T21:20:38;103451.28;;;-2.75;97.56
29163;BME280;20331;53.144;8.208;2024-01-10T21:26:00;103442.69;;;-2.77;97.65
29163;BME280;20331;53.144;8.208;2024-01-10T21:31:22;103442.19;;;-2.85;97.26
29163;BME280;20331;53.144;8.208;2024-01-10T21:36:44;103444.91;;;-2.82;98.03
29163;BME280;20331;53.144;8.208;2024-01-10T21:42:05;103456.91;;;-2.79;98.24
29163;BME280;20331;53.144;8.208;2024-01-10T21:47:27;103463.25;;;-2.86;97.16
29163;BME280;20331;53.144;8.208;2024-01-10T21:52:53;103480.16;;;-2.85;98.36
29163;BME280;20331;53.144;8.208;2024-01-10T21:58:14;103495.38;;;-2.85;98.29
29163;BME280;20331;53.144;8.208;2024-01-10T22:03:37;103496.91;;;-2.87;98.15
29163;BME280;20331;53.144;8.208;2024-01-10T22:08:59;103498.38;;;-2.90;97.80
29163;BME280;20331;53.144;8.208;2024-01-10T22:14:20;103495.53;;;-2.95;98.05
29163;BME280;20331;53.144;8.208;2024-01-10T22:19:42;103512.56;;;-2.92;98.18
29163;BME280;20331;53.144;8.208;2024-01-10T22:25:04;103512.38;;;-2.95;98.27
29163;BME280;20331;53.144;8.208;2024-01-10T22:30:27;103521.53;;;-2.97;97.84
29163;BME280;20331;53.144;8.208;2024-01-10T22:35:49;103512.19;;;-2.98;97.80
29163;BME280;20331;53.144;8.208;2024-01-10T22:41:11;103519.44;;;-3.03;97.29
29163;BME280;20331;53.144;8.208;2024-01-10T22:46:33;103518.56;;;-3.03;98.19
29163;BME280;20331;53.144;8.208;2024-01-10T22:51:55;103516.81;;;-3.04;97.99
29163;BME280;20331;53.144;8.208;2024-01-10T22:57:16;103505.63;;;-3.08;98.13
29163;BME280;20331;53.144;8.208;2024-01-10T23:02:38;103511.06;;;-3.02;98.58
29163;BME280;20331;53.144;8.208;2024-01-10T23:08:00;103507.59;;;-3.04;98.23
29163;BME280;20331;53.144;8.208;2024-01-10T23:13:23;103504.16;;;-3.04;98.40
29163;BME280;20331;53.144;8.208;2024-01-10T23:18:44;103505.06;;;-3.04;98.23
29163;BME280;20331;53.144;8.208;2024-01-10T23:24:06;103505.63;;;-3.08;98.08
29163;BME280;20331;53.144;8.208;2024-01-10T23:29:30;103488.00;;;-3.07;98.96
29163;BME280;20331;53.144;8.208;2024-01-10T23:34:52;103485.34;;;-3.08;98.57
29163;BME280;20331;53.144;8.208;2024-01-10T23:40:13;103488.75;;;-3.08;98.26
29163;BME280;20331;53.144;8.208;2024-01-10T23:45:37;103516.81;;;-3.04;98.86
29163;BME280;20331;53.144;8.208;2024-01-10T23:50:58;103513.88;;;-3.11;97.91
29163;BME280;20331;53.144;8.208;2024-01-10T23:56:20;103514.22;;;-3.18;97.78
